createdAt,value
2016-11-13T00:00:58.129Z,1024.43
2016-11-13T00:05:58.075Z,1024.3
2016-11-13T00:10:58.021Z,1024.26
2016-11-13T00:15:57.967Z,1024.31
2016-11-13T00:20:57.916Z,1024.3
2016-11-13T00:25:57.862Z,1024.35
2016-11-13T00:30:57.807Z,1024.37
2016-11-13T00:35:57.754Z,1024.34
2016-11-13T00:40:57.700Z,1024.29
2016-11-13T00:45:57.646Z,1024.31
2016-11-13T00:50:57.591Z,1024.37
2016-11-13T00:55:57.536Z,1024.39
2016-11-13T01:00:57.483Z,1024.46
2016-11-13T01:05:57.431Z,1024.51
2016-11-13T01:10:57.374Z,1024.52
2016-11-13T01:15:57.316Z,1024.46
2016-11-13T01:20:57.262Z,1024.4
2016-11-13T01:25:57.206Z,1024.33
2016-11-13T01:30:57.151Z,1024.43
2016-11-13T01:35:57.096Z,1024.43
2016-11-13T01:40:57.040Z,1024.43
2016-11-13T01:45:56.984Z,1024.52
2016-11-13T01:50:56.928Z,1024.54
2016-11-13T01:55:56.872Z,1024.61
2016-11-13T02:00:56.815Z,1024.62
2016-11-13T02:05:56.761Z,1024.63
2016-11-13T02:10:56.702Z,1024.67
2016-11-13T02:15:56.645Z,1024.6
2016-11-13T02:20:56.587Z,1024.58
2016-11-13T02:25:56.531Z,1024.53
2016-11-13T02:30:56.473Z,1024.55
2016-11-13T02:35:56.415Z,1024.54
2016-11-13T02:40:56.357Z,1024.53
2016-11-13T02:45:56.299Z,1024.49
2016-11-13T02:50:56.241Z,1024.42
2016-11-13T02:55:56.183Z,1024.39
2016-11-13T03:00:56.125Z,1024.45
2016-11-13T03:05:56.064Z,1024.53
2016-11-13T03:10:56.007Z,1024.55
2016-11-13T03:15:55.949Z,1024.54
2016-11-13T03:20:55.886Z,1024.59
2016-11-13T03:25:55.828Z,1024.63
2016-11-13T03:30:55.768Z,1024.74
2016-11-13T03:35:55.709Z,1024.68
2016-11-13T03:40:55.648Z,1024.63
2016-11-13T03:45:55.590Z,1024.68
2016-11-13T03:50:55.528Z,1024.7
2016-11-13T03:55:55.466Z,1024.77
2016-11-13T04:00:55.406Z,1024.83
2016-11-13T04:05:55.348Z,1024.81
2016-11-13T04:10:55.288Z,1024.85
2016-11-13T04:15:55.226Z,1024.9
2016-11-13T04:20:55.164Z,1024.99
2016-11-13T04:25:55.104Z,1025
2016-11-13T04:30:55.044Z,1025.02
2016-11-13T04:35:54.982Z,1025.01
2016-11-13T04:40:54.922Z,1025.02
2016-11-13T04:45:54.862Z,1024.92
2016-11-13T04:50:54.800Z,1024.92
2016-11-13T04:55:54.740Z,1024.98
2016-11-13T05:00:54.680Z,1025.07
2016-11-13T05:05:54.618Z,1025.08
2016-11-13T05:10:54.562Z,1025.13
2016-11-13T05:15:54.498Z,1025.14
2016-11-13T05:20:54.444Z,1025.1
2016-11-13T05:25:54.376Z,1025.1
2016-11-13T05:30:54.316Z,1025.15
2016-11-13T05:35:54.256Z,1025.19
2016-11-13T05:40:54.200Z,1025.18
2016-11-13T05:45:54.136Z,1025.22
2016-11-13T05:50:54.076Z,1025.24
2016-11-13T05:55:54.014Z,1025.27
2016-11-13T06:00:53.952Z,1025.36
2016-11-13T06:05:53.893Z,1025.37
2016-11-13T06:10:53.830Z,1025.45
2016-11-13T06:15:53.768Z,1025.49
2016-11-13T06:20:53.706Z,1025.51
2016-11-13T06:25:53.644Z,1025.55
2016-11-13T06:30:53.585Z,1025.55
2016-11-13T06:35:53.523Z,1025.59
2016-11-13T06:40:53.457Z,1025.65
2016-11-13T06:45:53.396Z,1025.71
2016-11-13T06:50:53.335Z,1025.82
2016-11-13T06:55:53.270Z,1025.84
2016-11-13T07:00:53.207Z,1025.73
2016-11-13T07:05:53.147Z,1025.7
2016-11-13T07:10:53.085Z,1025.7
2016-11-13T07:15:53.019Z,1025.83
2016-11-13T07:20:52.955Z,1025.88
2016-11-13T07:25:52.893Z,1025.95
2016-11-13T07:30:52.829Z,1025.95
2016-11-13T07:35:52.767Z,1026.02
2016-11-13T07:40:52.707Z,1026.01
2016-11-13T07:45:52.645Z,1026.06
2016-11-13T07:50:52.583Z,1026.11
2016-11-13T07:55:52.523Z,1026.18
2016-11-13T08:00:52.464Z,1026.28
2016-11-13T08:05:52.403Z,1026.28
2016-11-13T08:10:52.343Z,1026.36
2016-11-13T08:15:52.285Z,1026.44
2016-11-13T08:20:52.227Z,1026.42
2016-11-13T08:25:52.167Z,1026.46
2016-11-13T08:30:52.109Z,1026.5
2016-11-13T08:35:52.052Z,1026.59
2016-11-13T08:40:51.996Z,1026.6
2016-11-13T08:45:51.936Z,1026.62
2016-11-13T08:50:51.879Z,1026.7
2016-11-13T08:55:51.824Z,1026.71
2016-11-13T09:00:51.764Z,1026.74
2016-11-13T09:05:51.708Z,1026.77
2016-11-13T09:10:51.652Z,1026.9
2016-11-13T09:15:51.596Z,1026.9
2016-11-13T09:20:51.538Z,1026.96
2016-11-13T09:25:51.481Z,1027.01
2016-11-13T09:30:51.426Z,1026.97
2016-11-13T09:35:51.371Z,1027.02
2016-11-13T09:40:51.316Z,1027.08
2016-11-13T09:45:51.266Z,1027.14
2016-11-13T09:50:51.206Z,1027.15
2016-11-13T09:55:51.154Z,1027.18
2016-11-13T10:00:51.098Z,1027.27
2016-11-13T10:05:51.042Z,1027.29
2016-11-13T10:10:50.997Z,1027.29
2016-11-13T10:15:50.931Z,1027.37
2016-11-13T10:20:50.874Z,1027.41
2016-11-13T10:25:50.816Z,1027.44
2016-11-13T10:30:50.757Z,1027.5
2016-11-13T10:35:50.695Z,1027.48
2016-11-13T10:40:50.633Z,1027.53
2016-11-13T10:45:50.611Z,1027.53
2016-11-13T10:50:50.513Z,1027.55
2016-11-13T10:55:50.451Z,1027.52
2016-11-13T11:00:50.395Z,1027.52
2016-11-13T11:05:50.335Z,1027.51
2016-11-13T11:10:50.280Z,1027.52
2016-11-13T11:15:50.224Z,1027.58
2016-11-13T11:20:50.164Z,1027.58
2016-11-13T11:25:50.111Z,1027.67
2016-11-13T11:30:50.051Z,1027.68
2016-11-13T11:35:49.999Z,1027.69
2016-11-13T11:40:49.939Z,1027.76
2016-11-13T11:45:49.881Z,1027.83
2016-11-13T11:50:49.820Z,1027.88
2016-11-13T11:55:49.762Z,1027.88
2016-11-13T12:00:49.714Z,1027.88
2016-11-13T12:05:49.646Z,1027.89
2016-11-13T12:10:49.585Z,1027.87
2016-11-13T12:15:49.529Z,1027.88
2016-11-13T12:20:49.469Z,1027.9
2016-11-13T12:25:49.414Z,1027.96
2016-11-13T12:30:49.354Z,1028.06
2016-11-13T12:35:49.296Z,1028.1
2016-11-13T12:40:49.240Z,1028.13
2016-11-13T12:45:49.179Z,1028.17
2016-11-13T12:50:49.125Z,1028.2
2016-11-13T12:55:49.064Z,1028.25
2016-11-13T13:00:49.010Z,1028.27
2016-11-13T13:05:48.949Z,1028.23
2016-11-13T13:10:48.892Z,1028.22
2016-11-13T13:15:48.832Z,1028.22
2016-11-13T13:20:48.770Z,1028.21
2016-11-13T13:25:48.716Z,1028.27
2016-11-13T13:30:48.654Z,1028.27
2016-11-13T13:35:48.593Z,1028.29
2016-11-13T13:40:48.533Z,1028.29
2016-11-13T13:45:48.473Z,1028.34
2016-11-13T13:50:48.416Z,1028.42
2016-11-13T13:55:48.359Z,1028.34
2016-11-13T14:00:48.295Z,1028.37
2016-11-13T14:05:48.232Z,1028.47
2016-11-13T14:10:48.171Z,1028.5
2016-11-13T14:15:48.112Z,1028.55
2016-11-13T14:20:48.052Z,1028.55
2016-11-13T14:25:47.990Z,1028.58
2016-11-13T14:30:47.934Z,1028.62
2016-11-13T14:35:47.865Z,1028.59
2016-11-13T14:40:47.807Z,1028.6
2016-11-13T14:45:47.746Z,1028.69
2016-11-13T14:50:47.683Z,1028.66
2016-11-13T14:55:47.618Z,1028.62
2016-11-13T15:00:47.555Z,1028.64
2016-11-13T15:05:47.501Z,1028.68
2016-11-13T15:10:47.430Z,1028.82
2016-11-13T15:15:47.371Z,1028.92
2016-11-13T15:20:47.310Z,1028.93
2016-11-13T15:25:47.270Z,1028.94
2016-11-13T15:30:47.190Z,1029.09
2016-11-13T15:35:47.133Z,1029.24
2016-11-13T15:40:47.073Z,1029.31
2016-11-13T15:45:47.013Z,1029.26
2016-11-13T15:50:46.953Z,1029.27
2016-11-13T15:55:46.891Z,1029.35
2016-11-13T16:00:46.829Z,1029.52
2016-11-13T16:05:46.772Z,1029.63
2016-11-13T16:10:46.712Z,1029.56
2016-11-13T16:15:46.655Z,1029.58
2016-11-13T16:20:46.601Z,1029.63
2016-11-13T16:25:46.545Z,1029.66
2016-11-13T16:30:46.499Z,1029.76
2016-11-13T16:35:46.438Z,1029.87
2016-11-13T16:40:46.386Z,1029.95
2016-11-13T16:45:46.342Z,1029.96
2016-11-13T16:50:46.283Z,1030
2016-11-13T16:55:46.227Z,1030.06
2016-11-13T17:00:46.169Z,1030.29
2016-11-13T17:05:46.111Z,1030.46
2016-11-13T17:10:46.054Z,1030.54
2016-11-13T17:15:45.996Z,1030.7
2016-11-13T17:20:45.936Z,1030.85
2016-11-13T17:25:45.878Z,1030.91
2016-11-13T17:30:45.822Z,1030.95
2016-11-13T17:35:45.757Z,1030.99
2016-11-13T17:40:45.701Z,1031.02
2016-11-13T17:45:45.657Z,1031.11
2016-11-13T17:50:45.585Z,1031.27
2016-11-13T17:55:45.527Z,1031.45
2016-11-13T18:00:45.476Z,1031.38
2016-11-13T18:05:45.429Z,1031.42
2016-11-13T18:10:45.374Z,1031.42
2016-11-13T18:15:45.325Z,1031.29
2016-11-13T18:20:45.268Z,1031.39
2016-11-13T18:25:45.217Z,1031.36
2016-11-13T18:30:45.161Z,1031.28
2016-11-13T18:35:45.105Z,1031.45
2016-11-13T18:40:45.060Z,1031.46
2016-11-13T18:45:45.004Z,1031.54
2016-11-13T18:50:44.949Z,1031.64
2016-11-13T18:55:44.905Z,1031.66
2016-11-13T19:00:44.850Z,1031.63
2016-11-13T19:05:44.800Z,1031.67
2016-11-13T19:10:44.743Z,1031.78
2016-11-13T19:15:44.693Z,1031.91
2016-11-13T19:20:44.655Z,1032.1
2016-11-13T19:25:44.594Z,1032.07
2016-11-13T19:30:44.547Z,1032.09
2016-11-13T19:35:44.494Z,1032.2
2016-11-13T19:40:44.448Z,1032.22
2016-11-13T19:45:44.396Z,1032.22
2016-11-13T19:50:44.347Z,1032.16
2016-11-13T19:55:44.294Z,1032.2
2016-11-13T20:00:44.240Z,1032.24
2016-11-13T20:05:44.190Z,1032.36
2016-11-13T20:10:44.138Z,1032.32
2016-11-13T20:15:44.089Z,1032.34
2016-11-13T20:20:44.049Z,1032.52
2016-11-13T20:25:43.985Z,1032.44
2016-11-13T20:30:43.936Z,1032.49
2016-11-13T20:35:43.896Z,1032.54
2016-11-13T20:40:43.834Z,1032.43
2016-11-13T20:45:43.786Z,1032.55
2016-11-13T20:50:43.734Z,1032.42
2016-11-13T20:55:43.684Z,1032.17
2016-11-13T21:00:43.632Z,1032.15
2016-11-13T21:05:43.579Z,1032.33
2016-11-13T21:10:43.528Z,1032.46
2016-11-13T21:15:43.478Z,1032.66
2016-11-13T21:20:43.420Z,1032.6
2016-11-13T21:25:43.365Z,1032.61
2016-11-13T21:30:43.318Z,1032.68
2016-11-13T21:35:43.262Z,1032.69
2016-11-13T21:40:43.212Z,1032.71
2016-11-13T21:45:43.158Z,1032.8
2016-11-13T21:50:43.107Z,1032.87
2016-11-13T21:55:43.053Z,1032.89
2016-11-13T22:00:43.005Z,1032.95
2016-11-13T22:05:42.961Z,1033.01
2016-11-13T22:10:42.907Z,1033.04
2016-11-13T22:15:42.858Z,1033.12
2016-11-13T22:20:42.797Z,1033.04
2016-11-13T22:25:42.754Z,1033
2016-11-13T22:30:42.741Z,1032.91
2016-11-13T22:35:42.652Z,1033.06
2016-11-13T22:40:42.602Z,1033.14
2016-11-13T22:45:42.549Z,1033.12
2016-11-13T22:50:42.497Z,1033.15
2016-11-13T22:55:42.446Z,1033.15
2016-11-13T23:00:42.395Z,1033.09
2016-11-13T23:05:42.343Z,1033.14
2016-11-13T23:10:42.285Z,1033.05
2016-11-13T23:15:42.233Z,1033.02
2016-11-13T23:20:42.178Z,1032.99
2016-11-13T23:25:42.123Z,1033.04
2016-11-13T23:30:42.072Z,1033.16
2016-11-13T23:35:42.025Z,1033.18
2016-11-13T23:40:41.964Z,1033.26
2016-11-13T23:45:41.909Z,1033.23
2016-11-13T23:50:41.853Z,1033.19
2016-11-13T23:55:41.799Z,1033.22
